Time;durP1;ratioP1;P1;durP2;ratioP2;P2;SDS_P1;SDS_P2;PMS_P1;PMS_P2;Temp;Humidity;BMP_temperature;BMP_pressure;BME280_temperature;BME280_humidity;BME280_pressure;Samples;Min_cycle;Max_cycle;Signal;HPM_P1;HPM_P2
2023/03/09 00:01:28;;;;;;;7.43;3.88;;;2.00;99.90;;;;;;5060224;28;20457;-68
2023/03/09 00:03:54;;;;;;;5.85;3.03;;;2.00;99.90;;;;;;5057558;28;20041;-67
2023/03/09 00:06:20;;;;;;;7.80;4.05;;;2.10;99.90;;;;;;5061689;28;20047;-67
2023/03/09 00:08:49;;;;;;;8.88;4.35;;;2.00;99.90;;;;;;5063570;28;20131;-68
2023/03/09 00:11:16;;;;;;;7.20;4.15;;;2.10;99.90;;;;;;5062753;28;20124;-68
2023/03/09 00:13:43;;;;;;;7.30;3.90;;;2.10;99.90;;;;;;5056951;28;20492;-68
2023/03/09 00:16:15;;;;;;;6.93;3.40;;;2.10;99.90;;;;;;5054891;28;20078;-68
2023/03/09 00:18:41;;;;;;;7.00;3.85;;;2.10;99.90;;;;;;5045642;28;20037;-68
2023/03/09 00:21:07;;;;;;;5.40;2.88;;;2.10;99.90;;;;;;5048807;28;20041;-67
2023/03/09 00:23:33;;;;;;;5.45;3.38;;;2.10;99.90;;;;;;5044454;28;20048;-67
2023/03/09 00:26:06;;;;;;;4.65;2.65;;;2.10;99.90;;;;;;5047536;28;20052;-67
2023/03/09 00:28:32;;;;;;;4.57;2.72;;;2.10;99.90;;;;;;5045181;28;20131;-70
2023/03/09 00:31:05;;;;;;;6.30;3.03;;;2.10;99.90;;;;;;5047595;28;20041;-67
2023/03/09 00:33:31;;;;;;;5.90;3.20;;;2.10;99.90;;;;;;5044590;28;20045;-67
2023/03/09 00:35:57;;;;;;;4.53;2.60;;;2.10;99.90;;;;;;5049019;28;20040;-67
2023/03/09 00:38:23;;;;;;;6.55;2.83;;;2.10;99.90;;;;;;5046998;28;20048;-66
2023/03/09 00:40:49;;;;;;;4.70;2.90;;;2.10;99.90;;;;;;5048872;28;20098;-66
2023/03/09 00:43:15;;;;;;;7.47;2.92;;;2.10;99.90;;;;;;5043573;28;20041;-65
2023/03/09 00:45:41;;;;;;;7.55;3.25;;;2.10;99.90;;;;;;5046691;28;20045;-67
2023/03/09 00:48:06;;;;;;;6.80;3.50;;;2.10;99.90;;;;;;5047851;28;20044;-67
2023/03/09 00:50:32;;;;;;;6.38;3.65;;;2.10;99.90;;;;;;5049834;28;20040;-65
2023/03/09 00:52:58;;;;;;;9.35;4.18;;;2.10;99.90;;;;;;5043256;28;20042;-66
2023/03/09 00:55:23;;;;;;;8.52;4.57;;;2.10;99.90;;;;;;5045092;28;20072;-66
2023/03/09 00:57:49;;;;;;;8.10;4.20;;;2.10;99.90;;;;;;5042759;28;20049;-66
2023/03/09 01:00:15;;;;;;;11.90;3.97;;;2.10;99.90;;;;;;5045043;28;20047;-66
2023/03/09 01:02:40;;;;;;;7.43;3.78;;;2.10;99.90;;;;;;5071137;28;20040;-66
2023/03/09 01:05:06;;;;;;;9.13;3.58;;;2.10;99.90;;;;;;5069321;28;20029;-66
2023/03/09 01:07:34;;;;;;;5.82;3.17;;;2.10;99.90;;;;;;5070743;28;20040;-67
2023/03/09 01:09:59;;;;;;;5.68;3.25;;;2.10;99.90;;;;;;5070506;28;20048;-66
2023/03/09 01:12:25;;;;;;;5.30;3.35;;;2.10;99.90;;;;;;5070417;28;20546;-66
2023/03/09 01:14:56;;;;;;;7.65;3.70;;;2.20;99.90;;;;;;5037285;28;20885;-66
2023/03/09 01:17:22;;;;;;;8.10;3.60;;;2.10;99.90;;;;;;5071801;28;20073;-66
2023/03/09 01:19:47;;;;;;;6.57;3.78;;;2.10;99.90;;;;;;5070966;28;20503;-67
2023/03/09 01:22:13;;;;;;;7.97;4.28;;;2.10;99.90;;;;;;5069237;28;20067;-67
2023/03/09 01:24:39;;;;;;;11.15;4.13;;;2.10;99.90;;;;;;5072035;28;20043;-66
2023/03/09 01:27:06;;;;;;;12.25;4.63;;;2.10;99.90;;;;;;5069655;28;20811;-70
2023/03/09 01:29:32;;;;;;;7.40;3.72;;;2.10;99.90;;;;;;5074484;28;20044;-67
2023/03/09 01:31:58;;;;;;;8.15;4.10;;;2.10;99.90;;;;;;5068118;28;20066;-65
2023/03/09 01:34:24;;;;;;;5.20;2.85;;;2.10;99.90;;;;;;5072836;28;20040;-66
2023/03/09 01:36:50;;;;;;;4.85;3.10;;;2.00;99.90;;;;;;5069747;28;20043;-68
2023/03/09 01:39:15;;;;;;;5.00;2.80;;;2.00;99.90;;;;;;5076249;28;20743;-67
2023/03/09 01:41:41;;;;;;;4.38;2.60;;;2.10;99.90;;;;;;5068222;28;20040;-67
2023/03/09 01:44:13;;;;;;;7.93;3.60;;;2.10;99.90;;;;;;5068064;28;20044;-67
2023/03/09 01:46:54;;;;;;;4.63;2.80;;;2.10;99.90;;;;;;5068820;28;20127;-67
2023/03/09 01:49:29;;;;;;;7.93;3.40;;;2.10;99.90;;;;;;5072093;28;20075;-67
2023/03/09 01:52:16;;;;;;;5.88;3.53;;;2.10;99.90;;;;;;5069317;28;20045;-67
2023/03/09 01:54:58;;;;;;;7.53;3.50;;;2.10;99.90;;;;;;5064685;28;20046;-67
2023/03/09 01:57:32;;;;;;;5.68;2.90;;;2.10;99.90;;;;;;5065253;28;20049;-66
2023/03/09 02:00:07;;;;;;;7.00;3.25;;;2.10;99.90;;;;;;5073828;28;20055;-66
2023/03/09 02:02:37;;;;;;;4.78;2.60;;;2.10;99.90;;;;;;5069268;28;20044;-66
2023/03/09 02:05:08;;;;;;;7.18;3.50;;;2.10;99.90;;;;;;5068794;28;20097;-66
2023/03/09 02:07:37;;;;;;;2.17;1.40;;;2.10;99.90;;;;;;5070631;28;20126;-66
2023/03/09 02:10:11;;;;;;;1.85;0.60;;;2.10;99.90;;;;;;5071243;28;20044;-66
2023/03/09 02:12:40;;;;;;;4.13;2.08;;;2.10;99.90;;;;;;5073548;28;20061;-66
2023/03/09 02:15:06;;;;;;;2.55;1.58;;;2.10;99.90;;;;;;5070210;28;20035;-65
2023/03/09 02:17:32;;;;;;;3.33;2.00;;;2.10;99.90;;;;;;5074427;28;20185;-69
2023/03/09 02:20:06;;;;;;;4.60;2.75;;;2.00;99.90;;;;;;5068424;28;20089;-67
2023/03/09 02:22:36;;;;;;;5.07;2.05;;;2.00;99.90;;;;;;5070814;28;20089;-70
2023/03/09 02:25:22;;;;;;;5.20;2.22;;;2.00;99.90;;;;;;5069107;28;20047;-66
2023/03/09 02:27:50;;;;;;;5.28;2.45;;;2.00;99.90;;;;;;5072014;28;20477;-68
2023/03/09 02:30:16;;;;;;;3.88;2.05;;;2.00;99.90;;;;;;5069057;28;20070;-66
2023/03/09 02:32:41;;;;;;;4.78;1.67;;;2.00;99.90;;;;;;5073199;28;20687;-67
2023/03/09 02:35:09;;;;;;;3.60;1.73;;;2.00;99.90;;;;;;5067536;28;20036;-66
2023/03/09 02:37:39;;;;;;;3.22;1.40;;;2.00;99.90;;;;;;5068852;28;20052;-70
2023/03/09 02:40:15;;;;;;;3.50;1.38;;;2.10;99.90;;;;;;5071011;28;20051;-69
2023/03/09 02:42:43;;;;;;;4.70;1.40;;;2.10;99.90;;;;;;5071762;28;20058;-67
2023/03/09 02:45:11;;;;;;;2.22;0.90;;;2.10;99.90;;;;;;5065995;28;20044;-65
2023/03/09 02:47:38;;;;;;;2.80;0.90;;;2.10;99.90;;;;;;5067195;28;20083;-66
2023/03/09 02:50:09;;;;;;;2.53;1.40;;;2.10;99.90;;;;;;5067798;28;20041;-68
2023/03/09 02:52:36;;;;;;;3.97;1.08;;;2.10;99.90;;;;;;5071124;28;20045;-67
2023/03/09 02:55:02;;;;;;;2.28;1.38;;;2.10;99.90;;;;;;5068360;28;20044;-67
2023/03/09 02:57:28;;;;;;;2.65;1.63;;;2.10;99.90;;;;;;5072721;28;20101;-66
2023/03/09 02:59:54;;;;;;;2.20;1.30;;;2.00;99.90;;;;;;5072497;28;20036;-65
2023/03/09 03:02:19;;;;;;;1.80;0.90;;;2.10;99.90;;;;;;5067270;28;20032;-66
2023/03/09 03:04:45;;;;;;;4.55;0.77;;;2.10;99.90;;;;;;5070568;28;20040;-67
2023/03/09 03:07:11;;;;;;;2.13;0.82;;;2.10;99.90;;;;;;5066797;28;20048;-66
2023/03/09 03:09:36;;;;;;;1.98;0.60;;;2.20;99.90;;;;;;5071081;28;20033;-66
2023/03/09 03:12:02;;;;;;;0.90;0.70;;;2.20;99.90;;;;;;5069305;28;20488;-69
2023/03/09 03:14:27;;;;;;;1.02;0.60;;;2.20;99.90;;;;;;5069464;28;20052;-67
2023/03/09 03:16:53;;;;;;;0.73;0.40;;;2.20;99.90;;;;;;5067056;28;20041;-67
2023/03/09 03:19:19;;;;;;;1.45;0.65;;;2.30;99.90;;;;;;5071999;28;20132;-66
2023/03/09 03:21:45;;;;;;;1.83;0.60;;;2.30;99.90;;;;;;5067614;28;20032;-66
2023/03/09 03:24:10;;;;;;;1.05;0.47;;;2.40;99.90;;;;;;5066862;28;20111;-67
2023/03/09 03:26:36;;;;;;;1.75;0.73;;;2.40;99.90;;;;;;5067339;28;20135;-67
2023/03/09 03:29:02;;;;;;;1.45;0.65;;;2.40;99.90;;;;;;5073662;28;20487;-66
2023/03/09 03:31:28;;;;;;;0.55;0.50;;;2.50;99.90;;;;;;5066715;28;20504;-66
2023/03/09 03:33:53;;;;;;;2.58;0.70;;;2.50;99.90;;;;;;5073348;28;20044;-67
2023/03/09 03:36:19;;;;;;;2.85;1.20;;;2.50;99.90;;;;;;5078719;28;20044;-66
2023/03/09 03:38:44;;;;;;;3.00;1.27;;;2.40;99.90;;;;;;5069118;28;20036;-66
2023/03/09 03:41:10;;;;;;;2.35;1.33;;;2.30;99.90;;;;;;5066818;28;20029;-67
2023/03/09 03:43:35;;;;;;;4.28;1.13;;;2.20;99.90;;;;;;5072361;28;20101;-66
2023/03/09 03:46:01;;;;;;;3.83;1.27;;;2.20;99.90;;;;;;5066297;28;20033;-66
2023/03/09 03:48:26;;;;;;;1.42;1.02;;;2.20;99.90;;;;;;5073019;28;20036;-67
2023/03/09 03:50:52;;;;;;;2.65;1.05;;;2.20;99.90;;;;;;5071543;28;20047;-66
2023/03/09 03:53:17;;;;;;;1.52;0.98;;;2.30;99.90;;;;;;5069155;28;20390;-66
2023/03/09 03:55:44;;;;;;;2.30;1.40;;;2.30;99.90;;;;;;5073416;28;20045;-66
2023/03/09 03:58:09;;;;;;;1.70;1.33;;;2.30;99.90;;;;;;5072305;28;20036;-66
2023/03/09 04:00:35;;;;;;;4.75;1.63;;;2.20;99.90;;;;;;5072705;28;20048;-65
2023/03/09 04:03:00;;;;;;;4.32;1.40;;;2.30;99.90;;;;;;5075577;28;20096;-67
2023/03/09 04:05:26;;;;;;;2.03;1.00;;;2.40;99.90;;;;;;5073264;28;20052;-67
2023/03/09 04:07:52;;;;;;;2.05;0.80;;;2.40;99.90;;;;;;5075942;28;20047;-67
2023/03/09 04:10:18;;;;;;;1.17;0.75;;;2.50;99.90;;;;;;5073916;28;20089;-66
2023/03/09 04:12:43;;;;;;;1.30;0.77;;;2.60;99.90;;;;;;5073580;28;20512;-66
2023/03/09 04:15:10;;;;;;;2.08;0.75;;;2.70;99.90;;;;;;5067644;28;20612;-67
2023/03/09 04:17:35;;;;;;;1.40;0.90;;;2.70;99.90;;;;;;5071771;28;20132;-66
2023/03/09 04:20:02;;;;;;;1.10;0.75;;;2.70;99.90;;;;;;5070821;28;20508;-67
2023/03/09 04:22:27;;;;;;;2.05;0.77;;;2.70;99.90;;;;;;5072334;28;20044;-66
2023/03/09 04:24:53;;;;;;;2.95;1.10;;;2.70;99.90;;;;;;5072616;28;20047;-68
2023/03/09 04:27:19;;;;;;;1.23;0.90;;;2.80;99.90;;;;;;5070736;28;20036;-68
2023/03/09 04:29:45;;;;;;;1.50;1.20;;;2.80;99.90;;;;;;5074763;28;20113;-67
2023/03/09 04:32:10;;;;;;;3.45;1.20;;;2.70;99.90;;;;;;5069561;28;20385;-67
2023/03/09 04:34:36;;;;;;;2.03;1.10;;;2.70;99.90;;;;;;5073674;28;20701;-67
2023/03/09 04:37:02;;;;;;;2.63;1.38;;;2.70;99.90;;;;;;5070529;28;20047;-66
2023/03/09 04:39:27;;;;;;;3.03;1.20;;;2.70;99.90;;;;;;5074811;28;20041;-66
2023/03/09 04:41:54;;;;;;;1.30;1.00;;;2.70;99.90;;;;;;5070509;28;20090;-67
2023/03/09 04:44:20;;;;;;;1.75;1.15;;;2.70;99.90;;;;;;5073710;28;20704;-66
2023/03/09 04:46:46;;;;;;;3.70;0.80;;;2.70;99.90;;;;;;5069594;28;20058;-66
2023/03/09 04:49:11;;;;;;;1.30;0.60;;;2.70;99.90;;;;;;5073322;28;20488;-67
2023/03/09 04:51:37;;;;;;;1.10;0.50;;;2.70;99.90;;;;;;5069510;28;20064;-66
2023/03/09 04:54:03;;;;;;;1.02;0.73;;;2.80;99.90;;;;;;5077384;28;20123;-67
2023/03/09 04:56:28;;;;;;;1.42;1.00;;;2.80;99.90;;;;;;5070200;28;20122;-68
2023/03/09 04:58:55;;;;;;;0.88;0.70;;;2.80;99.90;;;;;;5076587;28;20051;-66
2023/03/09 05:01:21;;;;;;;0.85;0.50;;;2.90;99.90;;;;;;5067649;28;20090;-66
2023/03/09 05:03:46;;;;;;;0.88;0.60;;;2.90;99.90;;;;;;5076753;28;20035;-66
2023/03/09 05:06:12;;;;;;;0.80;0.45;;;2.90;99.90;;;;;;5068808;28;20660;-66
2023/03/09 05:08:38;;;;;;;0.45;0.40;;;3.00;99.90;;;;;;5075448;28;20480;-68
2023/03/09 05:11:04;;;;;;;0.73;0.40;;;2.90;99.90;;;;;;5069287;28;20468;-67
2023/03/09 05:13:29;;;;;;;1.13;0.70;;;3.00;99.90;;;;;;5074306;28;20037;-68
2023/03/09 05:15:55;;;;;;;0.85;0.40;;;2.90;99.90;;;;;;5067775;28;20044;-68
2023/03/09 05:18:20;;;;;;;0.43;0.40;;;2.90;99.90;;;;;;5075995;28;20068;-66
2023/03/09 05:20:46;;;;;;;0.82;0.57;;;2.90;99.90;;;;;;5073166;28;20687;-68
2023/03/09 05:23:12;;;;;;;0.80;0.60;;;2.90;99.90;;;;;;5074250;28;20042;-68
2023/03/09 05:25:38;;;;;;;0.60;0.50;;;2.90;99.90;;;;;;5068305;28;20044;-68
2023/03/09 05:28:04;;;;;;;0.75;0.47;;;2.90;99.90;;;;;;5074841;28;20070;-66
2023/03/09 05:30:31;;;;;;;1.00;0.40;;;2.90;99.90;;;;;;5069639;28;20039;-66
2023/03/09 05:32:56;;;;;;;0.52;0.40;;;2.90;99.90;;;;;;5073433;28;20392;-66
2023/03/09 05:35:22;;;;;;;0.90;0.50;;;2.90;99.90;;;;;;5068677;28;20044;-67
2023/03/09 05:37:48;;;;;;;0.47;0.40;;;2.90;99.90;;;;;;5070501;28;20437;-66
2023/03/09 05:40:14;;;;;;;0.40;0.30;;;2.90;99.90;;;;;;5069468;28;20052;-66
2023/03/09 05:42:41;;;;;;;0.52;0.40;;;2.90;99.90;;;;;;5072729;28;20067;-66
2023/03/09 05:45:08;;;;;;;0.50;0.40;;;2.90;99.90;;;;;;5068741;28;20434;-66
2023/03/09 05:47:34;;;;;;;0.85;0.47;;;2.90;99.90;;;;;;5070919;28;20146;-66
2023/03/09 05:50:00;;;;;;;0.50;0.40;;;2.90;99.90;;;;;;5070079;28;20119;-66
2023/03/09 05:52:26;;;;;;;0.60;0.50;;;2.80;99.90;;;;;;5070274;28;20150;-66
2023/03/09 05:54:51;;;;;;;0.50;0.40;;;2.90;99.90;;;;;;5071317;28;20671;-67
2023/03/09 05:57:17;;;;;;;0.65;0.30;;;2.90;99.90;;;;;;5068574;28;20098;-68
2023/03/09 05:59:42;;;;;;;1.30;0.40;;;2.90;99.90;;;;;;5075974;28;20051;-66
2023/03/09 06:02:08;;;;;;;0.40;0.40;;;2.90;99.90;;;;;;5069153;28;20036;-68
2023/03/09 06:04:34;;;;;;;0.60;0.30;;;3.00;99.90;;;;;;5084650;28;20794;-68
2023/03/09 06:06:59;;;;;;;0.43;0.40;;;3.00;99.90;;;;;;5069872;28;20044;-68
2023/03/09 06:09:25;;;;;;;0.70;0.50;;;3.00;99.90;;;;;;5070772;28;20128;-67
2023/03/09 06:11:51;;;;;;;3.08;0.60;;;3.00;99.90;;;;;;5069656;28;20170;-66
2023/03/09 06:14:16;;;;;;;1.05;0.47;;;3.10;99.90;;;;;;5071352;28;20040;-67
2023/03/09 06:16:42;;;;;;;0.73;0.40;;;3.10;99.90;;;;;;5066517;28;20421;-67
2023/03/09 06:19:08;;;;;;;2.92;0.57;;;3.10;99.90;;;;;;5070297;28;20052;-67
2023/03/09 06:21:34;;;;;;;1.02;0.60;;;3.20;99.90;;;;;;5068772;28;20031;-67
2023/03/09 06:24:00;;;;;;;6.68;0.50;;;3.20;99.90;;;;;;5071741;28;20036;-67
2023/03/09 06:26:25;;;;;;;0.70;0.50;;;3.20;99.90;;;;;;5067750;28;20105;-66
2023/03/09 06:28:51;;;;;;;0.77;0.57;;;3.20;99.90;;;;;;5075810;28;20056;-68
2023/03/09 06:31:17;;;;;;;1.02;0.50;;;3.10;99.90;;;;;;5065609;28;20455;-66
2023/03/09 06:33:45;;;;;;;1.45;0.70;;;3.20;99.90;;;;;;5071855;28;20048;-67
2023/03/09 06:36:13;;;;;;;0.50;0.50;;;3.20;99.90;;;;;;5061339;28;20033;-67
2023/03/09 06:38:39;;;;;;;0.60;0.60;;;3.20;99.90;;;;;;5072444;28;20123;-67
2023/03/09 06:41:04;;;;;;;1.52;0.80;;;3.20;99.90;;;;;;5067508;28;20307;-69
2023/03/09 06:43:30;;;;;;;2.80;0.98;;;3.20;99.90;;;;;;5074639;28;20036;-66
2023/03/09 06:45:56;;;;;;;0.95;0.65;;;3.30;99.90;;;;;;5068198;28;20095;-67
2023/03/09 06:48:22;;;;;;;2.55;1.00;;;3.30;99.90;;;;;;5076480;28;20564;-67
2023/03/09 06:50:51;;;;;;;6.60;0.90;;;3.40;99.90;;;;;;5077316;28;20519;-67
2023/03/09 06:53:16;;;;;;;1.45;0.90;;;3.40;99.90;;;;;;5072518;28;20043;-66
2023/03/09 06:55:43;;;;;;;1.88;1.20;;;3.40;99.90;;;;;;5066985;28;20432;-68
2023/03/09 06:58:09;;;;;;;1.60;1.00;;;3.30;99.90;;;;;;5071224;28;20040;-65
2023/03/09 07:00:37;;;;;;;0.93;0.60;;;3.30;99.90;;;;;;5069320;28;20574;-66
2023/03/09 07:03:04;;;;;;;3.03;0.65;;;3.40;99.90;;;;;;5072183;28;20071;-66
2023/03/09 07:05:30;;;;;;;1.42;0.60;;;3.40;99.90;;;;;;5071997;28;20039;-65
2023/03/09 07:07:56;;;;;;;0.90;0.70;;;3.50;99.90;;;;;;5076687;28;20040;-66
2023/03/09 07:10:21;;;;;;;0.80;0.60;;;3.50;99.90;;;;;;5071148;28;20060;-66
2023/03/09 07:12:48;;;;;;;1.05;0.77;;;3.50;99.90;;;;;;5066735;28;20073;-66
2023/03/09 07:15:14;;;;;;;0.88;0.60;;;3.60;99.90;;;;;;5061389;28;20147;-66
2023/03/09 07:17:40;;;;;;;0.47;0.47;;;3.50;99.90;;;;;;5065320;28;20040;-67
2023/03/09 07:20:06;;;;;;;1.10;0.52;;;3.60;99.90;;;;;;5064633;28;20060;-66
2023/03/09 07:22:32;;;;;;;1.70;0.65;;;3.60;99.90;;;;;;5072024;28;20156;-66
2023/03/09 07:24:57;;;;;;;0.93;0.68;;;3.70;99.90;;;;;;5076535;28;20123;-66
2023/03/09 07:27:23;;;;;;;1.25;0.70;;;3.70;99.90;;;;;;5072897;28;20616;-66
2023/03/09 07:29:48;;;;;;;3.00;0.70;;;3.70;99.90;;;;;;5077864;28;20041;-66
2023/03/09 07:32:15;;;;;;;0.88;0.50;;;3.60;99.90;;;;;;5075130;28;20044;-69
2023/03/09 07:34:40;;;;;;;0.68;0.40;;;3.80;99.90;;;;;;5071280;28;20535;-68
2023/03/09 07:37:06;;;;;;;2.80;0.50;;;3.80;99.90;;;;;;5076537;28;20035;-65
2023/03/09 07:39:32;;;;;;;2.35;0.52;;;3.90;99.90;;;;;;5081878;28;20058;-68
2023/03/09 07:41:58;;;;;;;0.50;0.30;;;3.80;99.90;;;;;;5078645;28;20032;-65
2023/03/09 07:44:23;;;;;;;1.02;0.40;;;3.80;99.90;;;;;;5075926;28;20044;-67
2023/03/09 07:46:49;;;;;;;0.40;0.40;;;3.80;99.90;;;;;;5074109;28;20066;-66
2023/03/09 07:49:14;;;;;;;1.15;0.60;;;3.90;99.90;;;;;;5090568;28;20358;-68
2023/03/09 07:51:40;;;;;;;0.65;0.40;;;4.00;99.90;;;;;;5076254;28;20044;-65
2023/03/09 07:54:06;;;;;;;0.40;0.32;;;4.10;99.90;;;;;;5084008;28;20050;-67
2023/03/09 07:56:33;;;;;;;0.75;0.55;;;4.10;99.90;;;;;;5083771;28;20044;-67
2023/03/09 07:58:58;;;;;;;2.40;0.60;;;4.20;99.90;;;;;;5079105;28;20048;-63
2023/03/09 08:01:25;;;;;;;1.13;0.30;;;4.10;99.90;;;;;;5070087;28;20075;-66
2023/03/09 08:03:51;;;;;;;1.90;0.98;;;4.20;99.90;;;;;;5074468;28;20052;-66
2023/03/09 08:06:17;;;;;;;0.50;0.50;;;4.40;99.90;;;;;;5069304;28;20098;-65
2023/03/09 08:08:42;;;;;;;3.50;0.88;;;4.50;99.90;;;;;;5074503;28;20075;-65
2023/03/09 08:11:08;;;;;;;1.92;0.30;;;4.60;99.90;;;;;;5070249;28;20063;-66
2023/03/09 08:13:34;;;;;;;2.20;0.70;;;4.70;99.90;;;;;;5069141;28;20040;-64
2023/03/09 08:16:03;;;;;;;0.80;0.43;;;4.90;99.90;;;;;;5068183;28;20128;-66
2023/03/09 08:18:29;;;;;;;1.75;1.08;;;5.20;99.90;;;;;;5076816;28;20577;-64
2023/03/09 08:20:55;;;;;;;1.08;0.50;;;5.40;99.90;;;;;;5071537;28;20044;-64
2023/03/09 08:23:20;;;;;;;0.95;0.60;;;5.50;99.90;;;;;;5072769;28;20032;-64
2023/03/09 08:25:53;;;;;;;0.50;0.40;;;5.60;99.90;;;;;;5071466;28;20038;-66
2023/03/09 08:28:19;;;;;;;1.83;1.15;;;5.80;99.90;;;;;;5073710;28;20040;-63
2023/03/09 08:30:44;;;;;;;0.80;0.45;;;5.90;99.90;;;;;;5061063;28;20089;-66
2023/03/09 08:33:10;;;;;;;0.55;0.40;;;6.10;99.90;;;;;;5069983;28;20036;-65
2023/03/09 08:35:35;;;;;;;0.60;0.40;;;6.20;99.90;;;;;;5068022;28;20129;-64
2023/03/09 08:38:01;;;;;;;1.05;0.60;;;6.20;99.90;;;;;;5071487;28;20519;-65
2023/03/09 08:40:27;;;;;;;1.10;0.52;;;6.20;99.90;;;;;;5069449;28;20119;-65
2023/03/09 08:42:52;;;;;;;1.63;0.52;;;6.20;99.90;;;;;;5068000;28;20033;-64
2023/03/09 08:45:18;;;;;;;;;;;6.10;99.90;;;;;;5072808;28;20068;-64
2023/03/09 08:47:44;;;;;;;1.15;0.40;;;6.10;99.90;;;;;;5068744;28;19928;-65
2023/03/09 08:50:10;;;;;;;0.50;0.30;;;6.10;99.90;;;;;;5073356;28;20044;-65
2023/03/09 08:52:39;;;;;;;0.60;0.30;;;6.30;99.90;;;;;;5075468;28;20036;-64
2023/03/09 08:55:06;;;;;;;4.43;0.40;;;6.50;99.90;;;;;;5068511;28;20067;-64
2023/03/09 08:57:32;;;;;;;0.60;0.35;;;6.50;99.90;;;;;;5072599;28;20672;-66
2023/03/09 08:59:58;;;;;;;0.30;0.25;;;6.50;99.90;;;;;;5073996;28;20479;-65
2023/03/09 09:02:24;;;;;;;2.30;0.50;;;6.50;99.90;;;;;;5069260;28;20083;-64
2023/03/09 09:04:51;;;;;;;0.60;0.38;;;6.40;99.90;;;;;;5075071;28;20075;-65
2023/03/09 09:07:17;;;;;;;5.03;1.58;;;6.20;99.90;;;;;;5068891;28;20032;-65
2023/03/09 09:09:43;;;;;;;3.45;0.30;;;6.00;99.90;;;;;;5070669;28;20078;-66
2023/03/09 09:12:10;;;;;;;1.17;0.38;;;5.80;99.90;;;;;;5063277;28;20040;-66
2023/03/09 09:14:39;;;;;;;0.60;0.28;;;5.70;99.90;;;;;;5076209;28;20047;-65
2023/03/09 09:17:08;;;;;;;0.63;0.30;;;5.50;99.90;;;;;;5068516;28;20136;-65
2023/03/09 09:19:37;;;;;;;0.47;0.30;;;5.50;99.90;;;;;;5072392;28;20043;-65
2023/03/09 09:22:04;;;;;;;1.17;0.30;;;5.50;99.90;;;;;;5070025;28;20077;-65
2023/03/09 09:24:38;;;;;;;1.25;0.45;;;5.50;99.90;;;;;;5072851;28;20086;-66
2023/03/09 09:27:05;;;;;;;2.70;0.40;;;5.60;99.90;;;;;;5066933;28;20052;-65
2023/03/09 09:29:32;;;;;;;0.73;0.30;;;5.60;99.90;;;;;;5075070;28;20067;-65
2023/03/09 09:31:58;;;;;;;1.38;0.52;;;5.70;99.90;;;;;;5068722;28;20036;-65
2023/03/09 09:34:24;;;;;;;2.50;0.32;;;5.70;99.90;;;;;;5071818;28;20071;-65
2023/03/09 09:36:50;;;;;;;0.40;0.30;;;5.70;99.90;;;;;;5066544;28;20035;-64
2023/03/09 09:39:16;;;;;;;0.60;0.43;;;5.70;99.90;;;;;;5069105;28;20036;-63
2023/03/09 09:41:44;;;;;;;0.40;0.40;;;5.80;99.90;;;;;;5069409;28;20040;-63
2023/03/09 09:44:42;;;;;;;0.98;0.40;;;5.80;99.90;;;;;;5067818;28;20036;-63
2023/03/09 09:47:16;;;;;;;0.52;0.45;;;5.90;99.90;;;;;;5058975;28;20056;-64
2023/03/09 09:49:48;;;;;;;1.02;0.40;;;5.90;99.90;;;;;;5067833;28;20461;-65
2023/03/09 09:52:26;;;;;;;0.55;0.40;;;5.90;99.90;;;;;;5068272;28;20431;-65
2023/03/09 09:55:04;;;;;;;0.45;0.40;;;5.90;99.90;;;;;;5075257;28;20044;-65
2023/03/09 09:57:44;;;;;;;1.35;0.47;;;6.00;99.90;;;;;;5077175;28;20045;-66
2023/03/09 10:00:34;;;;;;;0.30;0.28;;;6.00;99.90;;;;;;5067090;28;20065;-64
2023/03/09 10:03:25;;;;;;;0.20;0.20;;;6.10;99.90;;;;;;5074039;28;20409;-67
2023/03/09 10:06:17;;;;;;;0.30;0.22;;;6.00;99.90;;;;;;5068109;28;20097;-66
2023/03/09 10:08:51;;;;;;;0.82;0.38;;;6.00;99.90;;;;;;5070708;28;20459;-63
2023/03/09 10:11:31;;;;;;;0.70;0.30;;;6.10;99.90;;;;;;5065614;28;20038;-65
2023/03/09 10:14:24;;;;;;;1.50;0.28;;;6.20;99.90;;;;;;5069941;28;20064;-64
2023/03/09 10:17:21;;;;;;;0.90;0.68;;;6.30;99.90;;;;;;5070931;28;20032;-65
2023/03/09 10:19:48;;;;;;;;;;;6.40;99.90;;;;;;5066467;28;20120;-65
2023/03/09 10:22:17;;;;;;;0.57;0.30;;;6.40;99.90;;;;;;5066187;28;19924;-65
2023/03/09 10:24:50;;;;;;;1.20;0.40;;;6.40;99.90;;;;;;5081865;28;20048;-66
2023/03/09 10:27:15;;;;;;;1.45;0.35;;;6.60;99.90;;;;;;5066621;28;20115;-66
2023/03/09 10:29:57;;;;;;;0.55;0.40;;;6.60;99.90;;;;;;5070364;28;20131;-68
2023/03/09 10:32:34;;;;;;;0.47;0.30;;;6.60;99.90;;;;;;5068147;28;20521;-66
2023/03/09 10:35:39;;;;;;;0.45;0.30;;;6.50;99.90;;;;;;5069200;28;20139;-66
2023/03/09 10:38:08;;;;;;;0.70;0.50;;;6.50;99.90;;;;;;5069878;28;20803;-65
2023/03/09 10:41:06;;;;;;;0.52;0.40;;;6.50;99.90;;;;;;5071496;28;20036;-63
2023/03/09 10:43:34;;;;;;;2.15;0.50;;;6.50;99.90;;;;;;5071107;28;20123;-66
2023/03/09 10:46:11;;;;;;;0.38;0.30;;;6.50;99.90;;;;;;5067011;28;20852;-64
2023/03/09 10:48:36;;;;;;;0.65;0.40;;;6.50;99.90;;;;;;5072998;28;20044;-64
2023/03/09 10:51:04;;;;;;;1.67;0.40;;;6.50;99.90;;;;;;5067649;28;20793;-67
2023/03/09 10:53:43;;;;;;;1.08;0.57;;;6.60;99.90;;;;;;5071470;28;20589;-67
2023/03/09 10:56:20;;;;;;;0.35;0.30;;;6.60;99.90;;;;;;5058676;28;20048;-65
2023/03/09 10:58:58;;;;;;;0.90;0.50;;;6.70;99.90;;;;;;5074944;28;20047;-66
2023/03/09 11:01:24;;;;;;;6.10;2.70;;;6.60;99.90;;;;;;5070162;28;20074;-66
2023/03/09 11:03:50;;;;;;;4.80;2.60;;;6.60;99.90;;;;;;5074514;28;20041;-67
2023/03/09 11:06:16;;;;;;;1.40;0.90;;;6.60;99.90;;;;;;5068364;28;20046;-66
2023/03/09 11:08:42;;;;;;;;;;;6.60;99.90;;;;;;5073084;28;20377;-68
2023/03/09 11:11:18;;;;;;;1.63;0.83;;;6.50;99.90;;;;;;5067127;28;19920;-65
2023/03/09 11:13:44;;;;;;;1.27;0.75;;;6.40;99.90;;;;;;5071467;28;20043;-64
2023/03/09 11:16:27;;;;;;;0.60;0.57;;;6.30;99.90;;;;;;5065587;28;20079;-64
2023/03/09 11:19:12;;;;;;;0.90;0.60;;;6.20;99.90;;;;;;5072068;28;20045;-66
2023/03/09 11:21:50;;;;;;;0.90;0.70;;;6.20;99.90;;;;;;5069232;28;20044;-66
2023/03/09 11:24:17;;;;;;;0.82;0.70;;;6.10;99.90;;;;;;5071111;28;20110;-66
2023/03/09 11:26:50;;;;;;;0.93;0.70;;;6.10;99.90;;;;;;5064676;28;20052;-64
2023/03/09 11:29:16;;;;;;;0.85;0.60;;;6.20;99.90;;;;;;5061287;28;20750;-66
2023/03/09 11:31:43;;;;;;;1.50;0.90;;;6.20;99.90;;;;;;5065322;28;20044;-66
2023/03/09 11:34:23;;;;;;;1.00;0.80;;;6.20;99.90;;;;;;5066716;28;20163;-65
2023/03/09 11:37:07;;;;;;;2.67;0.68;;;6.40;99.90;;;;;;5077017;28;20044;-66
2023/03/09 11:39:37;;;;;;;1.33;1.00;;;6.30;99.90;;;;;;5065350;28;20041;-65
2023/03/09 11:42:09;;;;;;;1.00;0.50;;;6.10;99.90;;;;;;5065366;28;20044;-63
2023/03/09 11:44:44;;;;;;;1.30;0.70;;;6.20;99.90;;;;;;5064746;28;20396;-65
2023/03/09 11:47:30;;;;;;;1.73;0.70;;;6.40;99.90;;;;;;5064252;28;20064;-65
2023/03/09 11:50:00;;;;;;;0.90;0.75;;;6.50;99.90;;;;;;5065095;28;20040;-65
2023/03/09 11:52:45;;;;;;;1.05;0.75;;;6.60;99.90;;;;;;5067462;28;20765;-64
2023/03/09 11:55:22;;;;;;;1.00;0.75;;;6.50;99.90;;;;;;5063780;28;20071;-65
2023/03/09 11:57:54;;;;;;;1.40;1.00;;;6.50;99.90;;;;;;5063059;28;20044;-64
2023/03/09 12:00:21;;;;;;;0.57;0.57;;;6.20;99.90;;;;;;5057629;28;20060;-62
2023/03/09 12:03:11;;;;;;;1.35;0.60;;;6.30;99.90;;;;;;5068158;28;20839;-63
2023/03/09 12:05:45;;;;;;;1.48;0.80;;;6.20;99.90;;;;;;5065329;28;20039;-64
2023/03/09 12:08:33;;;;;;;0.93;0.80;;;6.20;99.90;;;;;;5064784;28;20155;-64
2023/03/09 12:11:12;;;;;;;0.88;0.82;;;6.20;99.90;;;;;;5064602;28;20044;-64
2023/03/09 12:13:50;;;;;;;1.50;0.90;;;6.10;99.90;;;;;;5073318;28;20044;-63
2023/03/09 12:16:44;;;;;;;1.55;1.38;;;6.00;99.90;;;;;;5062542;28;20052;-62
2023/03/09 12:19:10;;;;;;;1.45;1.30;;;5.80;99.90;;;;;;5067767;28;20052;-65
2023/03/09 12:21:39;;;;;;;1.33;1.20;;;5.70;99.90;;;;;;5071417;28;20044;-64
2023/03/09 12:24:37;;;;;;;2.42;1.23;;;5.80;99.90;;;;;;5074651;28;20033;-65
2023/03/09 12:27:14;;;;;;;1.40;1.10;;;5.80;99.90;;;;;;5062514;28;20090;-65
2023/03/09 12:29:47;;;;;;;1.67;1.30;;;5.80;99.90;;;;;;5076171;28;20044;-64
2023/03/09 12:32:19;;;;;;;2.08;1.30;;;5.80;99.90;;;;;;5070124;28;20040;-65
2023/03/09 12:34:46;;;;;;;2.08;1.30;;;5.80;99.90;;;;;;5068014;28;20102;-65
2023/03/09 12:37:27;;;;;;;2.00;1.20;;;5.80;99.90;;;;;;5074335;28;20090;-64
2023/03/09 12:40:05;;;;;;;3.00;1.38;;;6.00;99.90;;;;;;5072568;28;20040;-64
2023/03/09 12:42:39;;;;;;;2.70;1.25;;;6.10;99.90;;;;;;5069037;28;20477;-64
2023/03/09 12:45:10;;;;;;;2.00;1.35;;;6.10;99.90;;;;;;5070069;28;20377;-64
2023/03/09 12:47:48;;;;;;;1.67;1.35;;;6.20;99.90;;;;;;5069851;28;20496;-65
2023/03/09 12:50:21;;;;;;;1.70;1.40;;;6.20;99.90;;;;;;5069357;28;20071;-66
2023/03/09 12:53:14;;;;;;;1.77;1.33;;;6.10;99.90;;;;;;5070339;28;20051;-64
2023/03/09 12:55:40;;;;;;;1.88;1.50;;;6.00;99.90;;;;;;5071966;28;20040;-64
2023/03/09 12:58:17;;;;;;;1.48;1.38;;;6.10;99.90;;;;;;5069272;28;20711;-65
2023/03/09 13:00:51;;;;;;;2.63;2.00;;;6.00;99.90;;;;;;5068086;28;20041;-62
2023/03/09 13:03:22;;;;;;;2.65;1.98;;;5.80;99.90;;;;;;5070056;28;20040;-64
2023/03/09 13:05:53;;;;;;;2.17;1.70;;;5.80;99.90;;;;;;5064970;28;20051;-64
2023/03/09 13:08:20;;;;;;;3.97;1.90;;;5.70;99.90;;;;;;5072126;28;20432;-65